Terminal Aerodrome Forecast
Issued by NWS Charleston, WV

Current Version | Previous Version | Text Only | Print | Product List | Glossary Off
Versions: 1 2 3 4 5 6 7 8 9 10 11 12 13 14 15 16 17 18 19 20 21 22 23 24 25 26 27 28 29

000
FTUS41 KRLX 311733
TAFHTS
TAF
KHTS 311733Z 3118/0118 20008KT P6SM VCTS BKN045CB
     FM010300 30004KT P6SM BKN025
     FM010600 33003KT 5SM BR BKN015
     FM010800 34003KT 3SM BR OVC015
     FM011500 01006KT P6SM BKN015=

USA.gov is the U.S. government's official web portal to all federal, state and local government web resources and services.